Time;durP1;ratioP1;P1;durP2;ratioP2;P2;SDS_P1;SDS_P2;PMS_P1;PMS_P2;Temp;Humidity;BMP_temperature;BMP_pressure;BME280_temperature;BME280_humidity;BME280_pressure;Samples;Min_cycle;Max_cycle;Signal;HPM_P1;HPM_P2
2022/12/25 00:01:10;;;;;;;1184.47;382.15;;;5.70;99.90;;;;;;5071498;28;20078;-80
2022/12/25 00:03:36;;;;;;;1558.43;422.15;;;5.70;99.90;;;;;;5066698;28;20459;-81
2022/12/25 00:06:02;;;;;;;1201.95;373.48;;;5.60;99.90;;;;;;5072934;28;20032;-81
2022/12/25 00:08:28;;;;;;;995.17;374.20;;;5.60;99.90;;;;;;5072467;28;20360;-80
2022/12/25 00:11:02;;;;;;;887.58;366.42;;;5.60;99.90;;;;;;5073247;28;20020;-79
2022/12/25 00:13:28;;;;;;;1065.72;425.23;;;5.60;99.90;;;;;;5072929;28;20028;-80
2022/12/25 00:15:54;;;;;;;1057.72;429.15;;;5.60;99.90;;;;;;5072755;28;20021;-80
2022/12/25 00:18:20;;;;;;;1668.65;505.42;;;5.60;99.90;;;;;;5071322;28;20036;-79
2022/12/25 00:20:58;;;;;;;1710.25;502.25;;;5.50;99.90;;;;;;5072942;28;20028;-79
2022/12/25 00:23:25;;;;;;;1999.90;547.90;;;5.50;99.90;;;;;;5071673;28;20036;-79
2022/12/25 00:25:52;;;;;;;1934.80;545.95;;;5.50;99.90;;;;;;5071465;28;20103;-80
2022/12/25 00:28:18;;;;;;;1999.90;578.83;;;5.40;99.90;;;;;;5071497;28;20375;-79
2022/12/25 00:30:43;;;;;;;1938.07;578.47;;;5.40;99.90;;;;;;5072820;28;20040;-80
2022/12/25 00:33:09;;;;;;;1999.90;597.70;;;5.40;99.90;;;;;;5072414;28;20020;-80
2022/12/25 00:35:35;;;;;;;1999.90;578.92;;;5.50;99.90;;;;;;5072887;28;20016;-79
2022/12/25 00:38:01;;;;;;;1999.90;561.55;;;5.40;99.90;;;;;;5071496;28;20029;-80
2022/12/25 00:40:26;;;;;;;1999.90;583.28;;;5.40;99.90;;;;;;5071014;28;20375;-80
2022/12/25 00:42:52;;;;;;;1999.90;558.65;;;5.40;99.90;;;;;;5071653;28;20054;-80
2022/12/25 00:45:18;;;;;;;1977.97;542.03;;;5.40;99.90;;;;;;5072827;28;20074;-80
2022/12/25 00:47:43;;;;;;;1999.90;568.20;;;5.40;99.90;;;;;;5072521;28;20039;-80
2022/12/25 00:50:10;;;;;;;1999.90;561.50;;;5.40;99.90;;;;;;5072417;28;20413;-80
2022/12/25 00:52:36;;;;;;;1999.90;578.85;;;5.30;99.90;;;;;;5072509;28;20043;-80
2022/12/25 00:55:02;;;;;;;1999.90;582.83;;;5.30;99.90;;;;;;5072504;28;20532;-80
2022/12/25 00:57:27;;;;;;;1999.90;590.72;;;5.20;99.90;;;;;;5071266;28;20024;-79
2022/12/25 00:59:53;;;;;;;1698.43;529.75;;;5.20;99.90;;;;;;5072988;28;20340;-80
2022/12/25 01:02:25;;;;;;;1314.22;519.38;;;5.20;99.90;;;;;;5071269;28;20063;-79
2022/12/25 01:04:53;;;;;;;1999.90;613.22;;;5.20;99.90;;;;;;5071324;28;20027;-79
2022/12/25 01:07:19;;;;;;;1999.90;810.47;;;5.20;99.90;;;;;;5071009;28;20370;-80
2022/12/25 01:12:32;;;;;;;1999.90;656.15;;;5.30;99.90;;;;;;5075200;28;20028;-79
2022/12/25 01:14:58;;;;;;;1999.90;621.47;;;5.20;99.90;;;;;;5075918;28;20016;-80
2022/12/25 01:17:24;;;;;;;1919.13;591.30;;;5.20;99.90;;;;;;5076145;28;20020;-79
2022/12/25 01:19:50;;;;;;;1912.90;573.88;;;5.20;99.90;;;;;;5075785;28;20375;-80
2022/12/25 01:22:16;;;;;;;1999.90;625.90;;;5.20;99.90;;;;;;5075506;28;20032;-79
2022/12/25 01:24:43;;;;;;;1999.90;571.47;;;5.20;99.90;;;;;;5074712;28;20024;-81
2022/12/25 01:27:09;;;;;;;1999.90;612.28;;;5.10;99.90;;;;;;5074455;28;20078;-80
2022/12/25 01:29:35;;;;;;;1430.13;522.42;;;5.10;99.90;;;;;;5075712;28;20034;-80
2022/12/25 01:32:01;;;;;;;1805.57;566.58;;;5.10;99.90;;;;;;5075479;28;20430;-79
2022/12/25 01:34:26;;;;;;;1402.15;488.95;;;5.00;99.90;;;;;;5075824;28;20035;-80
2022/12/25 01:36:52;;;;;;;948.58;394.77;;;5.00;99.90;;;;;;5075527;28;20029;-79
2022/12/25 01:39:18;;;;;;;1690.45;460.67;;;4.90;99.90;;;;;;5074442;28;20712;-78
2022/12/25 01:41:43;;;;;;;1118.78;408.95;;;4.80;99.90;;;;;;5075617;28;20029;-80
2022/12/25 01:44:15;;;;;;;1607.50;450.38;;;4.80;99.90;;;;;;5075385;28;20466;-79
2022/12/25 01:46:42;;;;;;;1809.05;469.33;;;4.80;99.90;;;;;;5075459;28;20021;-79
2022/12/25 01:49:12;;;;;;;1496.50;432.00;;;4.80;99.90;;;;;;5074418;28;20024;-80
2022/12/25 01:51:42;;;;;;;1953.05;469.13;;;4.70;99.90;;;;;;5075261;28;20029;-79
2022/12/25 01:54:20;;;;;;;949.95;382.55;;;4.70;99.90;;;;;;5074060;28;20024;-79
2022/12/25 01:56:48;;;;;;;1634.53;455.05;;;4.70;99.90;;;;;;5070048;28;20426;-80
2022/12/25 01:59:18;;;;;;;1567.78;464.15;;;4.70;99.90;;;;;;5075255;28;20047;-80
2022/12/25 02:01:44;;;;;;;1223.72;424.35;;;4.60;99.90;;;;;;5068615;28;20517;-80
2022/12/25 02:04:37;;;;;;;1214.57;422.25;;;4.50;99.90;;;;;;5075052;28;20021;-80
2022/12/25 02:07:10;;;;;;;982.97;357.05;;;4.50;99.90;;;;;;5069354;28;20367;-80
2022/12/25 02:09:37;;;;;;;789.28;317.15;;;4.50;99.90;;;;;;5075080;28;20032;-80
2022/12/25 02:12:03;;;;;;;849.60;337.23;;;4.40;99.90;;;;;;5075178;28;20108;-81
2022/12/25 02:14:33;;;;;;;811.47;321.85;;;4.40;99.90;;;;;;5075015;28;20103;-80
2022/12/25 02:17:12;;;;;;;898.90;309.83;;;4.30;99.90;;;;;;5075051;28;20039;-80
2022/12/25 02:20:03;;;;;;;823.35;271.23;;;4.30;99.90;;;;;;5075196;28;20040;-79
2022/12/25 02:22:40;;;;;;;857.97;260.60;;;4.30;99.90;;;;;;5069377;28;20025;-80
2022/12/25 02:25:27;;;;;;;570.75;202.98;;;4.20;99.90;;;;;;5074192;28;20028;-80
2022/12/25 02:28:08;;;;;;;844.42;235.10;;;4.20;99.90;;;;;;5074828;28;20024;-80
2022/12/25 02:30:39;;;;;;;970.80;236.82;;;4.30;99.90;;;;;;5074572;28;20107;-79
2022/12/25 02:36:00;;;;;;;;;;;4.20;99.90;;;;;;5070483;28;20375;-80
2022/12/25 02:38:37;;;;;;;441.35;147.23;;;4.20;99.90;;;;;;5074468;28;19955;-79
2022/12/25 02:41:14;;;;;;;406.13;137.13;;;4.30;99.90;;;;;;5069491;28;20024;-79
2022/12/25 03:07:02;;;;;;;276.65;116.35;;;4.80;99.90;;;;;;5070128;28;20031;-80
2022/12/25 03:12:28;;;;;;;444.83;183.05;;;4.80;99.90;;;;;;5073884;28;20085;-80
2022/12/25 03:17:38;;;;;;;471.90;204.43;;;4.90;99.90;;;;;;5067436;28;20203;-79
2022/12/25 03:28:18;;;;;;;382.98;163.15;;;5.00;99.90;;;;;;5070470;28;20039;-79
2022/12/25 03:31:11;;;;;;;319.83;145.05;;;5.00;99.90;;;;;;5073364;28;20028;-80
2022/12/25 04:36:14;;;;;;;292.13;112.70;;;5.10;99.90;;;;;;5072533;28;20027;-80
2022/12/25 04:38:40;;;;;;;283.55;112.95;;;5.10;99.90;;;;;;5073297;28;20429;-80
2022/12/25 04:41:08;;;;;;;275.27;111.10;;;5.10;99.90;;;;;;5073184;28;20486;-79
2022/12/25 04:43:34;;;;;;;257.08;106.55;;;5.10;99.90;;;;;;5071806;28;20017;-80
2022/12/25 04:46:01;;;;;;;245.82;104.00;;;5.00;99.90;;;;;;5072832;28;20023;-80
2022/12/25 04:48:29;;;;;;;242.90;103.85;;;5.00;99.90;;;;;;5076565;28;20032;-80
2022/12/25 04:50:55;;;;;;;272.70;110.30;;;5.00;99.90;;;;;;5076702;28;20059;-79
2022/12/25 04:53:21;;;;;;;260.48;107.93;;;5.00;99.90;;;;;;5076235;28;20024;-79
2022/12/25 04:55:47;;;;;;;267.15;109.70;;;5.00;99.90;;;;;;5076566;28;20150;-79
2022/12/25 04:58:13;;;;;;;242.57;102.10;;;5.00;99.90;;;;;;5076389;28;20111;-80
2022/12/25 05:00:38;;;;;;;274.17;111.57;;;5.10;99.90;;;;;;5076714;28;20025;-80
2022/12/25 05:03:04;;;;;;;288.50;118.38;;;5.10;99.90;;;;;;5076298;28;20024;-80
2022/12/25 05:05:30;;;;;;;279.10;117.40;;;5.10;99.90;;;;;;5076568;28;20150;-79
2022/12/25 05:07:56;;;;;;;291.17;122.70;;;5.10;99.90;;;;;;5076155;28;20028;-80
2022/12/25 05:10:22;;;;;;;299.98;120.45;;;5.10;99.90;;;;;;5076207;28;20028;-81
2022/12/25 05:12:48;;;;;;;344.00;149.35;;;5.10;99.90;;;;;;5075579;28;20370;-80
2022/12/25 05:15:14;;;;;;;355.92;155.07;;;5.10;99.90;;;;;;5076121;28;20095;-80
2022/12/25 05:17:40;;;;;;;367.40;157.00;;;5.10;99.90;;;;;;5076244;28;20028;-80
2022/12/25 05:20:06;;;;;;;355.65;154.75;;;5.10;99.90;;;;;;5074553;28;20115;-80
2022/12/25 05:22:32;;;;;;;343.77;148.43;;;5.10;99.90;;;;;;5076191;28;20107;-80
2022/12/25 05:24:57;;;;;;;363.90;151.43;;;5.00;99.90;;;;;;5074671;28;20121;-80
2022/12/25 05:27:23;;;;;;;370.88;155.80;;;5.00;99.90;;;;;;5075665;28;20430;-79
2022/12/25 05:29:49;;;;;;;318.63;138.90;;;4.90;99.90;;;;;;5076284;28;20137;-80
2022/12/25 05:32:14;;;;;;;320.40;141.98;;;4.90;99.90;;;;;;5074475;28;20094;-81
2022/12/25 05:34:40;;;;;;;311.20;141.25;;;4.90;99.90;;;;;;5075365;28;20032;-80
2022/12/25 05:37:06;;;;;;;343.40;150.82;;;4.80;99.90;;;;;;5074422;28;20505;-80
2022/12/25 05:39:31;;;;;;;334.35;148.88;;;4.80;99.90;;;;;;5075666;28;20031;-79
2022/12/25 05:41:57;;;;;;;350.58;155.52;;;4.80;99.90;;;;;;5075548;28;20360;-80
2022/12/25 05:44:23;;;;;;;366.77;159.15;;;4.80;99.90;;;;;;5075243;28;20082;-80
2022/12/25 05:46:49;;;;;;;344.17;153.27;;;4.70;99.90;;;;;;5075727;28;20016;-79
2022/12/25 05:49:14;;;;;;;354.27;159.85;;;4.70;99.90;;;;;;5074579;28;20037;-80
2022/12/25 05:51:40;;;;;;;384.00;177.20;;;4.60;99.90;;;;;;5074376;28;20126;-79
2022/12/25 05:54:06;;;;;;;404.38;191.60;;;4.70;99.90;;;;;;5075552;28;20020;-79
2022/12/25 05:56:32;;;;;;;450.83;221.02;;;4.60;99.90;;;;;;5075546;28;20099;-80
2022/12/25 05:58:57;;;;;;;468.17;237.75;;;4.70;99.90;;;;;;5074765;28;20024;-79
2022/12/25 06:01:25;;;;;;;462.92;225.50;;;4.70;99.90;;;;;;5074904;28;20021;-80
2022/12/25 06:03:51;;;;;;;422.90;208.07;;;4.60;99.90;;;;;;5075355;28;20051;-80
2022/12/25 06:06:17;;;;;;;433.38;221.18;;;4.70;99.90;;;;;;5075204;28;20072;-80
2022/12/25 06:08:43;;;;;;;450.60;221.15;;;4.70;99.90;;;;;;5068824;28;20477;-80
2022/12/25 06:11:11;;;;;;;436.23;209.32;;;4.70;99.90;;;;;;5073690;28;20031;-80
2022/12/25 06:13:37;;;;;;;405.85;200.65;;;4.70;99.90;;;;;;5075137;28;20085;-80
2022/12/25 06:16:07;;;;;;;421.67;207.60;;;4.70;99.90;;;;;;5074529;28;20519;-80
2022/12/25 06:18:38;;;;;;;435.17;217.65;;;4.70;99.90;;;;;;5073372;28;20056;-80
2022/12/25 06:21:12;;;;;;;524.03;265.10;;;4.70;99.90;;;;;;5074870;28;20035;-80
2022/12/25 06:23:38;;;;;;;459.52;239.90;;;4.70;99.90;;;;;;5074910;28;20031;-80
2022/12/25 06:26:09;;;;;;;406.50;220.70;;;4.70;99.90;;;;;;5074299;28;20020;-80
2022/12/25 06:28:35;;;;;;;393.92;211.52;;;4.70;99.90;;;;;;5074685;28;20024;-79
2022/12/25 06:31:09;;;;;;;430.98;226.82;;;4.70;99.90;;;;;;5074770;28;20028;-80
2022/12/25 06:33:35;;;;;;;433.40;226.95;;;4.80;99.90;;;;;;5067438;28;20455;-79
2022/12/25 06:36:18;;;;;;;399.55;214.60;;;4.80;99.90;;;;;;5074668;28;20024;-80
2022/12/25 06:38:44;;;;;;;355.85;186.18;;;4.80;99.90;;;;;;5069319;28;20028;-80
2022/12/25 06:41:13;;;;;;;362.15;187.43;;;4.80;99.90;;;;;;5074006;28;20021;-80
2022/12/25 06:43:39;;;;;;;387.80;201.82;;;4.80;99.90;;;;;;5073894;28;20344;-80
2022/12/25 06:46:10;;;;;;;445.70;223.60;;;4.80;99.90;;;;;;5073222;28;20031;-80
2022/12/25 06:48:37;;;;;;;427.70;219.52;;;4.90;99.90;;;;;;5074421;28;20021;-80
2022/12/25 06:51:03;;;;;;;426.70;217.50;;;4.90;99.90;;;;;;5074102;28;20471;-80
2022/12/25 06:53:29;;;;;;;419.63;227.65;;;5.00;99.90;;;;;;5073108;28;20020;-80
2022/12/25 06:56:06;;;;;;;446.13;235.40;;;5.00;99.90;;;;;;5074060;28;20028;-80
2022/12/25 06:58:32;;;;;;;461.55;249.43;;;5.00;99.90;;;;;;5068837;28;20033;-80
2022/12/25 07:00:58;;;;;;;468.73;249.63;;;5.00;99.90;;;;;;5074141;28;20098;-81
2022/12/25 07:03:26;;;;;;;461.85;249.98;;;5.10;99.90;;;;;;5072747;28;20027;-81
2022/12/25 07:05:52;;;;;;;536.13;292.05;;;5.10;99.90;;;;;;5072399;28;20025;-80
2022/12/25 07:08:17;;;;;;;566.60;315.13;;;5.40;99.90;;;;;;5073745;28;20474;-81
2022/12/25 07:10:43;;;;;;;561.95;309.95;;;5.80;99.90;;;;;;5073042;28;20063;-80
2022/12/25 07:13:09;;;;;;;566.53;322.75;;;6.20;99.90;;;;;;5073364;28;20047;-81
2022/12/25 07:15:35;;;;;;;537.28;303.48;;;6.40;99.90;;;;;;5072630;28;20363;-81
2022/12/25 07:18:00;;;;;;;488.23;275.15;;;6.50;99.90;;;;;;5073586;28;20083;-80
2022/12/25 07:20:26;;;;;;;492.23;281.23;;;6.50;99.90;;;;;;5072555;28;20025;-80
2022/12/25 07:22:52;;;;;;;505.50;290.70;;;6.60;99.90;;;;;;5073682;28;20017;-82
2022/12/25 07:25:17;;;;;;;562.92;332.65;;;6.70;99.90;;;;;;5073189;28;20077;-81
2022/12/25 07:27:43;;;;;;;590.75;348.20;;;6.90;99.90;;;;;;5073354;28;20025;-80
2022/12/25 07:30:09;;;;;;;593.63;349.10;;;7.00;99.90;;;;;;5073551;28;20353;-80
2022/12/25 07:32:35;;;;;;;599.83;363.27;;;6.90;99.90;;;;;;5073411;28;20032;-81
2022/12/25 07:35:01;;;;;;;563.15;342.00;;;6.90;99.90;;;;;;5071868;28;20046;-80
2022/12/25 07:37:26;;;;;;;483.50;289.88;;;6.90;99.90;;;;;;5073032;28;20452;-80
2022/12/25 07:39:52;;;;;;;382.77;233.85;;;6.90;99.90;;;;;;5072859;28;20028;-81
2022/12/25 07:42:18;;;;;;;374.25;225.40;;;6.90;99.90;;;;;;5072824;28;20016;-81
2022/12/25 07:44:43;;;;;;;362.17;213.00;;;6.90;99.90;;;;;;5072528;28;20074;-80
2022/12/25 07:47:09;;;;;;;400.40;236.88;;;7.00;99.90;;;;;;5073868;28;20079;-81
2022/12/25 07:49:35;;;;;;;394.05;226.90;;;7.10;99.90;;;;;;5073743;28;20024;-80
2022/12/25 07:52:01;;;;;;;513.05;280.60;;;7.20;99.90;;;;;;5073884;28;20020;-80
2022/12/25 07:54:26;;;;;;;585.75;317.55;;;7.30;99.90;;;;;;5072644;28;20021;-79
2022/12/25 07:56:52;;;;;;;494.65;290.10;;;7.30;99.90;;;;;;5073982;28;20426;-80
2022/12/25 07:59:19;;;;;;;317.65;185.95;;;7.40;99.90;;;;;;5073773;28;20024;-80
2022/12/25 08:01:45;;;;;;;286.23;161.98;;;7.50;99.90;;;;;;5072286;28;20024;-80
2022/12/25 08:04:11;;;;;;;269.90;150.57;;;7.40;99.90;;;;;;5072591;28;20017;-79
2022/12/25 08:06:37;;;;;;;150.25;86.88;;;7.40;99.90;;;;;;5072118;28;20017;-80
2022/12/25 08:09:08;;;;;;;145.93;89.63;;;7.60;99.90;;;;;;5073509;28;20032;-79
2022/12/25 08:11:35;;;;;;;126.90;70.05;;;8.10;99.90;;;;;;5073500;28;20467;-80
2022/12/25 08:14:01;;;;;;;100.75;57.60;;;7.90;99.90;;;;;;5072523;28;20119;-81
2022/12/25 08:16:26;;;;;;;101.05;63.28;;;7.90;99.90;;;;;;5073559;28;20529;-80
2022/12/25 08:18:53;;;;;;;87.63;49.85;;;7.90;99.90;;;;;;5072237;28;20041;-82
2022/12/25 08:21:19;;;;;;;84.20;46.33;;;8.20;99.90;;;;;;5074413;28;20123;-80
2022/12/25 08:23:47;;;;;;;83.03;46.75;;;8.20;99.90;;;;;;5081319;28;20427;-81
2022/12/25 08:26:16;;;;;;;75.60;41.38;;;8.10;99.90;;;;;;5076539;28;20020;-82
2022/12/25 08:28:42;;;;;;;85.63;45.92;;;8.10;99.90;;;;;;5077121;28;20020;-82
2022/12/25 08:31:13;;;;;;;100.45;53.70;;;8.00;99.90;;;;;;5077357;28;20043;-80
2022/12/25 08:33:39;;;;;;;77.38;41.83;;;8.00;99.90;;;;;;5076455;28;20107;-81
2022/12/25 08:36:08;;;;;;;70.60;39.20;;;8.10;99.90;;;;;;5077235;28;20105;-81
2022/12/25 08:38:34;;;;;;;72.82;41.80;;;8.20;99.90;;;;;;5078424;28;20060;-82
2022/12/25 08:41:00;;;;;;;92.07;52.88;;;8.20;99.90;;;;;;5076213;28;20024;-81
2022/12/25 08:43:25;;;;;;;80.33;46.00;;;8.40;99.90;;;;;;5077444;28;20091;-81
2022/12/25 08:45:51;;;;;;;102.88;54.88;;;8.40;99.90;;;;;;5076276;28;20032;-82
2022/12/25 08:48:17;;;;;;;115.20;62.53;;;8.60;99.90;;;;;;5057130;28;20029;-81
2022/12/25 08:50:51;;;;;;;129.55;67.57;;;8.60;99.90;;;;;;5074985;28;20033;-82
2022/12/25 08:53:17;;;;;;;160.85;80.45;;;8.80;99.90;;;;;;5076623;28;20016;-82
2022/12/25 08:55:43;;;;;;;159.82;84.50;;;8.90;99.90;;;;;;5076723;28;20028;-81
2022/12/25 08:58:09;;;;;;;188.38;100.85;;;9.00;99.90;;;;;;5076640;28;20021;-81
2022/12/25 09:00:36;;;;;;;224.55;103.97;;;9.20;99.90;;;;;;5075726;28;20050;-82
2022/12/25 09:03:02;;;;;;;222.35;105.10;;;9.40;99.90;;;;;;5076770;28;20048;-82
2022/12/25 09:05:28;;;;;;;125.63;69.22;;;9.40;99.90;;;;;;5076819;28;20031;-82
2022/12/25 09:07:54;;;;;;;156.95;81.25;;;9.40;99.90;;;;;;5075575;28;20025;-81
2022/12/25 09:10:20;;;;;;;149.50;79.80;;;9.60;99.90;;;;;;5075795;28;20024;-81
2022/12/25 09:12:46;;;;;;;156.18;80.28;;;9.70;99.90;;;;;;5076979;28;20034;-81
2022/12/25 09:15:12;;;;;;;138.02;76.13;;;9.90;99.90;;;;;;5074900;28;20111;-82
2022/12/25 09:17:37;;;;;;;117.28;69.40;;;10.00;99.90;;;;;;5075338;28;20028;-82
2022/12/25 09:20:04;;;;;;;130.90;82.38;;;10.30;99.90;;;;;;5073888;28;20044;-83
2022/12/25 09:22:30;;;;;;;146.25;83.65;;;10.50;99.90;;;;;;5075695;28;20463;-82
2022/12/25 09:24:56;;;;;;;223.80;117.65;;;10.70;99.90;;;;;;5074095;28;20044;-83
2022/12/25 09:27:21;;;;;;;198.23;112.05;;;10.90;99.90;;;;;;5075373;28;20044;-83
2022/12/25 09:29:47;;;;;;;207.55;106.13;;;11.00;99.90;;;;;;5075157;28;20065;-82
2022/12/25 09:32:13;;;;;;;67.60;36.92;;;11.40;99.90;;;;;;5073878;28;20063;-82
2022/12/25 09:34:39;;;;;;;89.70;50.25;;;11.70;99.90;;;;;;5075291;28;20452;-84
2022/12/25 09:37:04;;;;;;;218.95;114.00;;;12.10;99.90;;;;;;5075699;28;20017;-82
2022/12/25 09:39:30;;;;;;;138.77;74.97;;;12.40;99.90;;;;;;5075788;28;20040;-83
2022/12/25 09:42:16;;;;;;;183.43;103.78;;;12.70;99.90;;;;;;5076340;28;20077;-83
2022/12/25 09:44:48;;;;;;;227.40;131.95;;;12.20;99.90;;;;;;5074912;28;20134;-83
2022/12/25 09:47:20;;;;;;;190.32;107.75;;;12.00;99.90;;;;;;5074601;28;20020;-82
2022/12/25 09:49:55;;;;;;;242.90;136.65;;;12.10;99.90;;;;;;5075976;28;20116;-82
2022/12/25 09:52:45;;;;;;;240.15;133.25;;;12.70;99.90;;;;;;5075738;28;20028;-83
2022/12/25 09:55:13;;;;;;;182.00;103.35;;;13.40;99.90;;;;;;5075117;28;20124;-82
2022/12/25 09:57:38;;;;;;;183.93;107.10;;;14.20;99.90;;;;;;5075195;28;20090;-83
2022/12/25 10:00:14;;;;;;;151.15;86.53;;;14.60;99.90;;;;;;5075012;28;20029;-82
2022/12/25 10:02:39;;;;;;;149.32;83.28;;;15.10;99.90;;;;;;5073915;28;20394;-80
2022/12/25 10:05:14;;;;;;;135.77;80.40;;;15.00;99.90;;;;;;5075207;28;20436;-80
2022/12/25 10:07:48;;;;;;;136.52;77.53;;;15.20;99.90;;;;;;5073351;28;20020;-79
2022/12/25 10:10:34;;;;;;;113.70;67.75;;;15.80;99.90;;;;;;5074012;28;20043;-79
2022/12/25 10:13:03;;;;;;;134.73;84.60;;;15.50;99.90;;;;;;5067627;28;20112;-81
2022/12/25 10:15:37;;;;;;;171.10;98.22;;;15.50;99.90;;;;;;5073812;28;20028;-79
2022/12/25 10:18:20;;;;;;;189.00;116.20;;;15.50;99.90;;;;;;5069476;28;20040;-79
2022/12/25 10:20:53;;;;;;;122.50;78.25;;;15.70;99.90;;;;;;5074576;28;20025;-79
2022/12/25 10:23:47;;;;;;;103.28;63.40;;;16.50;99.90;;;;;;5074499;28;20050;-80
2022/12/25 10:26:19;;;;;;;81.50;52.00;;;17.20;98.50;;;;;;5051152;28;20039;-80
2022/12/25 10:28:52;;;;;;;103.35;62.83;;;17.60;95.50;;;;;;5068434;28;20028;-80
2022/12/25 10:31:21;;;;;;;76.82;46.65;;;18.50;94.10;;;;;;5077357;28;20037;-80
2022/12/25 10:33:49;;;;;;;61.00;37.55;;;19.00;90.10;;;;;;5072454;28;20108;-80
2022/12/25 10:36:19;;;;;;;60.08;39.22;;;19.00;88.40;;;;;;5074484;28;20375;-80
2022/12/25 10:38:46;;;;;;;76.88;45.55;;;;;;;;;;5074670;28;20028;-79
2022/12/25 10:41:33;;;;;;;74.65;45.75;;;19.40;83.30;;;;;;5073949;28;20013;-80
2022/12/25 10:43:58;;;;;;;93.68;53.33;;;19.50;85.30;;;;;;5082402;28;20028;-80
2022/12/25 10:46:27;;;;;;;82.47;52.80;;;;;;;;;;5072817;28;20032;-80
2022/12/25 10:48:59;;;;;;;61.55;38.00;;;20.00;81.10;;;;;;5073762;28;20371;-79
2022/12/25 10:51:30;;;;;;;65.20;41.22;;;20.00;80.00;;;;;;5074995;28;20073;-79
2022/12/25 10:53:56;;;;;;;63.25;37.40;;;20.10;79.00;;;;;;5073343;28;20100;-81
2022/12/25 10:56:21;;;;;;;78.47;43.88;;;20.20;78.20;;;;;;5073194;28;20123;-79
2022/12/25 10:58:47;;;;;;;72.35;42.17;;;20.10;78.30;;;;;;5073465;28;20028;-81
2022/12/25 11:01:13;;;;;;;58.08;33.03;;;19.60;78.70;;;;;;5073270;28;20592;-81
2022/12/25 11:03:43;;;;;;;59.63;37.70;;;19.50;78.60;;;;;;5074357;28;20024;-81
2022/12/25 11:06:29;;;;;;;58.38;35.80;;;19.10;79.00;;;;;;5074608;28;20036;-79
2022/12/25 11:09:00;;;;;;;76.95;39.30;;;19.10;80.90;;;;;;5073398;28;20040;-80
2022/12/25 11:11:27;;;;;;;52.30;31.93;;;19.10;82.90;;;;;;5074437;28;20024;-81
2022/12/25 11:13:57;;;;;;;51.67;30.08;;;19.10;81.70;;;;;;5072238;28;20471;-80
2022/12/25 11:16:37;;;;;;;44.05;27.25;;;18.80;83.20;;;;;;5063422;28;20055;-81
2022/12/25 11:19:25;;;;;;;34.90;22.88;;;18.60;84.30;;;;;;5074480;28;20040;-79
2022/12/25 11:21:53;;;;;;;45.20;28.42;;;18.70;84.60;;;;;;5067560;28;20495;-80
2022/12/25 11:24:21;;;;;;;58.53;32.83;;;18.40;85.90;;;;;;5073066;28;20036;-80
2022/12/25 11:26:51;;;;;;;44.20;23.30;;;18.60;86.00;;;;;;5073547;28;20024;-81
2022/12/25 11:29:29;;;;;;;97.75;54.03;;;18.50;86.00;;;;;;5072762;28;20028;-80
2022/12/25 11:31:58;;;;;;;103.32;53.13;;;18.50;86.70;;;;;;5072583;28;20021;-81
2022/12/25 11:34:35;;;;;;;120.10;66.25;;;18.30;85.50;;;;;;5073779;28;20046;-81
2022/12/25 11:37:03;;;;;;;71.90;41.00;;;17.90;85.90;;;;;;5072982;28;20063;-80
2022/12/25 11:39:33;;;;;;;54.65;32.95;;;17.20;87.20;;;;;;5072424;28;20028;-82
2022/12/25 11:42:11;;;;;;;48.63;26.83;;;17.20;88.80;;;;;;5072733;28;20027;-80
2022/12/25 11:45:04;;;;;;;40.35;23.33;;;17.30;88.80;;;;;;5072373;28;20021;-81
2022/12/25 11:47:52;;;;;;;39.50;23.67;;;17.30;89.40;;;;;;5073230;28;20052;-82
2022/12/25 11:50:32;;;;;;;37.72;22.83;;;16.90;89.50;;;;;;5072486;28;20028;-80
2022/12/25 11:53:13;;;;;;;34.78;18.73;;;16.20;90.30;;;;;;5072472;28;20102;-83
2022/12/25 11:55:48;;;;;;;36.75;21.35;;;15.80;91.70;;;;;;5073555;28;20024;-81
2022/12/25 11:58:21;;;;;;;26.20;13.77;;;15.40;93.70;;;;;;5071623;28;20032;-81
2022/12/25 12:00:50;;;;;;;33.47;14.68;;;15.00;93.10;;;;;;5072877;28;20012;-81
2022/12/25 12:03:18;;;;;;;28.80;16.73;;;14.70;93.10;;;;;;5073273;28;20075;-81
2022/12/25 12:06:04;;;;;;;32.13;13.77;;;14.50;94.00;;;;;;5073202;28;20471;-81
2022/12/25 12:08:31;;;;;;;44.83;21.85;;;14.30;93.70;;;;;;5072372;28;20120;-81
2022/12/25 12:11:00;;;;;;;33.53;18.00;;;14.20;95.70;;;;;;5072247;28;20031;-79
2022/12/25 12:13:57;;;;;;;38.40;16.67;;;14.10;96.80;;;;;;5070815;28;20021;-82
2022/12/25 12:16:23;;;;;;;53.47;27.08;;;14.10;97.80;;;;;;5053423;28;20022;-79
2022/12/25 12:18:49;;;;;;;54.42;24.23;;;14.10;98.00;;;;;;5069159;28;20512;-78
2022/12/25 12:21:28;;;;;;;43.30;21.33;;;14.00;98.00;;;;;;5073036;28;20532;-81
2022/12/25 12:24:05;;;;;;;49.33;22.35;;;13.90;96.00;;;;;;5072197;28;20021;-81
2022/12/25 12:26:36;;;;;;;60.90;29.70;;;13.80;97.70;;;;;;5073230;28;20021;-79
2022/12/25 12:29:05;;;;;;;81.63;42.83;;;13.80;98.60;;;;;;5076441;28;20029;-80
2022/12/25 12:31:45;;;;;;;70.13;37.10;;;13.80;99.20;;;;;;5085649;28;20036;-82
2022/12/25 12:34:41;;;;;;;53.85;27.55;;;13.80;99.90;;;;;;5071872;28;20031;-78
2022/12/25 12:37:24;;;;;;;38.78;21.45;;;13.80;99.90;;;;;;5071540;28;20215;-78
2022/12/25 12:39:54;;;;;;;55.80;31.27;;;13.70;98.70;;;;;;5071809;28;20418;-79
2022/12/25 12:42:24;;;;;;;52.05;22.80;;;13.70;99.90;;;;;;5072054;28;20021;-79
2022/12/25 12:44:53;;;;;;;77.43;33.83;;;13.60;99.90;;;;;;5073142;28;20078;-78
2022/12/25 12:47:42;;;;;;;62.05;31.30;;;13.50;99.90;;;;;;5071870;28;20024;-79
2022/12/25 12:50:29;;;;;;;54.50;30.15;;;13.50;99.90;;;;;;5072978;28;20449;-78
2022/12/25 12:52:55;;;;;;;40.38;21.00;;;13.40;99.90;;;;;;5072376;28;20174;-78
2022/12/25 12:55:33;;;;;;;67.22;30.80;;;13.40;99.90;;;;;;5072972;28;20112;-80
2022/12/25 12:58:04;;;;;;;44.25;20.30;;;13.40;99.90;;;;;;5071799;28;20082;-79
2022/12/25 13:00:47;;;;;;;40.22;21.85;;;13.40;99.90;;;;;;5071787;28;20340;-79
2022/12/25 13:03:30;;;;;;;34.13;17.85;;;13.30;99.90;;;;;;5072553;28;20021;-78
2022/12/25 13:06:11;;;;;;;36.78;17.88;;;13.20;99.90;;;;;;5072779;28;20029;-78
2022/12/25 13:08:43;;;;;;;32.15;16.95;;;13.20;99.90;;;;;;5075764;28;20069;-78
2022/12/25 13:11:24;;;;;;;41.78;21.50;;;13.20;99.90;;;;;;5076883;28;20020;-79
2022/12/25 13:13:53;;;;;;;33.58;16.23;;;13.30;99.90;;;;;;5075285;28;20068;-78
2022/12/25 13:16:25;;;;;;;59.03;28.02;;;13.20;99.90;;;;;;5075230;28;20108;-78
2022/12/25 13:18:54;;;;;;;48.65;22.42;;;13.10;99.90;;;;;;5076574;28;20094;-78
2022/12/25 13:21:26;;;;;;;41.95;17.63;;;13.00;99.90;;;;;;5076551;28;20025;-79
2022/12/25 13:23:59;;;;;;;;;;;13.10;99.90;;;;;;5077157;28;20016;-80
2022/12/25 13:26:25;;;;;;;76.82;32.03;;;13.10;99.90;;;;;;5075161;28;19961;-79
2022/12/25 13:28:51;;;;;;;51.80;23.10;;;13.00;99.90;;;;;;5075118;28;20111;-80
2022/12/25 13:31:20;;;;;;;49.30;24.83;;;12.90;99.90;;;;;;5074847;28;20344;-78
2022/12/25 13:33:50;;;;;;;76.30;37.30;;;12.90;99.90;;;;;;5074717;28;20063;-77
2022/12/25 13:36:16;;;;;;;79.25;35.38;;;12.90;99.90;;;;;;5076088;28;20021;-78
2022/12/25 13:38:48;;;;;;;88.20;38.88;;;12.90;99.90;;;;;;5076316;28;20036;-78
2022/12/25 13:44:33;;;;;;;104.72;49.35;;;12.80;99.90;;;;;;5074547;28;20027;-80
2022/12/25 13:47:19;;;;;;;65.38;29.88;;;12.90;99.90;;;;;;5012749;28;20030;-79
2022/12/25 13:49:46;;;;;;;118.35;56.63;;;12.80;99.90;;;;;;5014257;28;20033;-81
2022/12/25 13:52:17;;;;;;;227.82;107.70;;;12.80;99.90;;;;;;5008066;28;20095;-79
2022/12/25 13:54:54;;;;;;;109.38;53.08;;;12.70;99.90;;;;;;4997437;28;20018;-80
2022/12/25 13:57:24;;;;;;;92.07;44.20;;;12.70;99.90;;;;;;5013308;28;20038;-78
2022/12/25 13:59:51;;;;;;;88.45;43.70;;;12.80;99.90;;;;;;5013692;28;20121;-79
2022/12/25 14:02:24;;;;;;;123.60;64.68;;;12.80;99.90;;;;;;5014369;28;20105;-79
2022/12/25 14:04:50;;;;;;;95.72;48.72;;;12.80;99.90;;;;;;5013195;28;20408;-79
2022/12/25 14:07:22;;;;;;;113.38;57.80;;;12.80;99.90;;;;;;5016529;28;20449;-79
2022/12/25 14:09:59;;;;;;;102.15;55.42;;;12.80;99.90;;;;;;5002102;28;20071;-79
2022/12/25 14:12:26;;;;;;;161.93;97.90;;;12.80;99.90;;;;;;5013161;28;20041;-78
2022/12/25 14:14:53;;;;;;;88.82;47.67;;;12.80;99.90;;;;;;5012894;28;20484;-77
2022/12/25 14:17:20;;;;;;;84.63;45.85;;;12.80;99.90;;;;;;5012425;28;20037;-80
2022/12/25 14:19:55;;;;;;;97.47;46.55;;;12.80;99.90;;;;;;5014265;28;20512;-80
2022/12/25 14:22:22;;;;;;;84.03;42.20;;;12.70;99.90;;;;;;5021311;28;20038;-79